sensor_id;sensor_type;location;lat;lon;timestamp;temperature;humidity
5842;DHT22;2947;52.276;9.946;2024-01-15T00:00:24;1.80;99.90
5842;DHT22;2947;52.276;9.946;2024-01-15T00:02:50;1.80;99.90
5842;DHT22;2947;52.276;9.946;2024-01-15T00:05:17;1.80;99.90
5842;DHT22;2947;52.276;9.946;2024-01-15T00:07:45;1.70;99.90
5842;DHT22;2947;52.276;9.946;2024-01-15T00:10:11;1.80;99.90
5842;DHT22;2947;52.276;9.946;2024-01-15T00:12:36;1.80;99.90
5842;DHT22;2947;52.276;9.946;2024-01-15T00:15:03;1.80;99.90
5842;DHT22;2947;52.276;9.946;2024-01-15T00:17:30;1.80;99.90
5842;DHT22;2947;52.276;9.946;2024-01-15T00:19:55;1.80;99.90
5842;DHT22;2947;52.276;9.946;2024-01-15T00:22:21;1.80;99.90
5842;DHT22;2947;52.276;9.946;2024-01-15T00:24:48;1.80;99.90
5842;DHT22;2947;52.276;9.946;2024-01-15T00:27:14;1.80;99.90
5842;DHT22;2947;52.276;9.946;2024-01-15T00:29:40;1.80;99.90
5842;DHT22;2947;52.276;9.946;2024-01-15T00:32:06;1.90;99.90
5842;DHT22;2947;52.276;9.946;2024-01-15T00:34:31;1.80;99.90
5842;DHT22;2947;52.276;9.946;2024-01-15T00:36:57;1.90;99.90
5842;DHT22;2947;52.276;9.946;2024-01-15T00:39:23;1.90;99.90
5842;DHT22;2947;52.276;9.946;2024-01-15T00:41:49;1.90;99.90
5842;DHT22;2947;52.276;9.946;2024-01-15T00:44:15;1.90;99.90
5842;DHT22;2947;52.276;9.946;2024-01-15T00:46:43;1.90;99.90
5842;DHT22;2947;52.276;9.946;2024-01-15T00:49:10;1.90;99.90
5842;DHT22;2947;52.276;9.946;2024-01-15T00:51:37;1.90;99.90
5842;DHT22;2947;52.276;9.946;2024-01-15T00:54:03;1.80;99.90
5842;DHT22;2947;52.276;9.946;2024-01-15T00:56:31;2.70;99.90
5842;DHT22;2947;52.276;9.946;2024-01-15T00:58:57;1.80;99.90
5842;DHT22;2947;52.276;9.946;2024-01-15T01:01:22;1.80;99.90
5842;DHT22;2947;52.276;9.946;2024-01-15T01:03:48;1.80;99.90
5842;DHT22;2947;52.276;9.946;2024-01-15T01:06:13;1.80;99.90
5842;DHT22;2947;52.276;9.946;2024-01-15T01:08:39;1.80;99.90
5842;DHT22;2947;52.276;9.946;2024-01-15T01:11:05;1.80;99.90
5842;DHT22;2947;52.276;9.946;2024-01-15T01:13:32;1.70;99.90
5842;DHT22;2947;52.276;9.946;2024-01-15T01:15:58;1.80;99.90
5842;DHT22;2947;52.276;9.946;2024-01-15T01:18:24;1.70;99.90
5842;DHT22;2947;52.276;9.946;2024-01-15T01:20:50;1.70;99.90
5842;DHT22;2947;52.276;9.946;2024-01-15T01:23:16;1.60;99.90
5842;DHT22;2947;52.276;9.946;2024-01-15T01:25:42;1.70;99.90
5842;DHT22;2947;52.276;9.946;2024-01-15T01:28:08;1.50;99.90
5842;DHT22;2947;52.276;9.946;2024-01-15T01:30:35;1.70;99.90
5842;DHT22;2947;52.276;9.946;2024-01-15T01:33:00;1.70;99.90
5842;DHT22;2947;52.276;9.946;2024-01-15T01:35:26;1.70;99.90
5842;DHT22;2947;52.276;9.946;2024-01-15T01:37:52;1.70;99.90
5842;DHT22;2947;52.276;9.946;2024-01-15T01:40:18;1.70;99.90
5842;DHT22;2947;52.276;9.946;2024-01-15T01:42:44;1.60;99.90
5842;DHT22;2947;52.276;9.946;2024-01-15T01:45:13;1.70;99.90
5842;DHT22;2947;52.276;9.946;2024-01-15T01:47:39;1.70;99.90
5842;DHT22;2947;52.276;9.946;2024-01-15T01:50:07;1.70;99.90
5842;DHT22;2947;52.276;9.946;2024-01-15T01:52:33;1.70;99.90
5842;DHT22;2947;52.276;9.946;2024-01-15T01:55:01;1.70;99.90
5842;DHT22;2947;52.276;9.946;2024-01-15T01:57:28;1.70;99.90
5842;DHT22;2947;52.276;9.946;2024-01-15T01:59:54;1.70;99.90
5842;DHT22;2947;52.276;9.946;2024-01-15T02:02:21;0.80;99.90
5842;DHT22;2947;52.276;9.946;2024-01-15T02:04:49;1.70;99.90
5842;DHT22;2947;52.276;9.946;2024-01-15T02:07:15;1.70;99.90
5842;DHT22;2947;52.276;9.946;2024-01-15T02:09:44;1.70;99.90
5842;DHT22;2947;52.276;9.946;2024-01-15T02:12:10;1.80;99.90
5842;DHT22;2947;52.276;9.946;2024-01-15T02:14:36;1.80;99.90
5842;DHT22;2947;52.276;9.946;2024-01-15T02:17:02;1.80;99.90
5842;DHT22;2947;52.276;9.946;2024-01-15T02:19:28;1.80;99.90
5842;DHT22;2947;52.276;9.946;2024-01-15T02:21:55;1.80;99.90
5842;DHT22;2947;52.276;9.946;2024-01-15T02:24:21;1.90;99.90
5842;DHT22;2947;52.276;9.946;2024-01-15T02:26:47;1.90;99.90
5842;DHT22;2947;52.276;9.946;2024-01-15T02:29:15;1.90;99.90
5842;DHT22;2947;52.276;9.946;2024-01-15T02:31:44;1.90;99.90
5842;DHT22;2947;52.276;9.946;2024-01-15T02:34:12;2.00;99.90
5842;DHT22;2947;52.276;9.946;2024-01-15T02:36:39;1.90;99.90
5842;DHT22;2947;52.276;9.946;2024-01-15T02:39:05;2.00;99.90
5842;DHT22;2947;52.276;9.946;2024-01-15T02:41:31;2.00;99.90
5842;DHT22;2947;52.276;9.946;2024-01-15T02:43:56;2.00;99.90
5842;DHT22;2947;52.276;9.946;2024-01-15T02:46:22;2.00;99.90
5842;DHT22;2947;52.276;9.946;2024-01-15T02:48:48;2.00;99.90
5842;DHT22;2947;52.276;9.946;2024-01-15T02:51:13;2.00;99.90
5842;DHT22;2947;52.276;9.946;2024-01-15T02:53:39;2.10;99.90
5842;DHT22;2947;52.276;9.946;2024-01-15T02:56:06;2.10;99.90
5842;DHT22;2947;52.276;9.946;2024-01-15T02:58:32;2.10;99.90
5842;DHT22;2947;52.276;9.946;2024-01-15T03:00:58;2.10;99.90
5842;DHT22;2947;52.276;9.946;2024-01-15T03:03:23;2.10;99.90
5842;DHT22;2947;52.276;9.946;2024-01-15T03:05:49;2.10;99.90
5842;DHT22;2947;52.276;9.946;2024-01-15T03:08:15;2.10;99.90
5842;DHT22;2947;52.276;9.946;2024-01-15T03:10:41;2.10;99.90
5842;DHT22;2947;52.276;9.946;2024-01-15T03:13:07;2.50;99.90
5842;DHT22;2947;52.276;9.946;2024-01-15T03:15:32;2.10;99.90
5842;DHT22;2947;52.276;9.946;2024-01-15T03:17:58;2.10;99.90
5842;DHT22;2947;52.276;9.946;2024-01-15T03:20:24;2.10;99.90
5842;DHT22;2947;52.276;9.946;2024-01-15T03:22:49;2.10;99.90
5842;DHT22;2947;52.276;9.946;2024-01-15T03:25:15;2.20;99.90
5842;DHT22;2947;52.276;9.946;2024-01-15T03:27:41;2.10;99.90
5842;DHT22;2947;52.276;9.946;2024-01-15T03:30:07;2.10;99.90
5842;DHT22;2947;52.276;9.946;2024-01-15T03:32:33;2.10;99.90
5842;DHT22;2947;52.276;9.946;2024-01-15T03:34:59;2.20;99.90
5842;DHT22;2947;52.276;9.946;2024-01-15T03:37:24;2.20;99.90
5842;DHT22;2947;52.276;9.946;2024-01-15T03:39:52;2.10;99.90
5842;DHT22;2947;52.276;9.946;2024-01-15T03:42:19;2.10;99.90
5842;DHT22;2947;52.276;9.946;2024-01-15T03:44:45;2.10;99.90
5842;DHT22;2947;52.276;9.946;2024-01-15T03:47:11;2.10;99.90
5842;DHT22;2947;52.276;9.946;2024-01-15T03:49:37;2.10;99.90
5842;DHT22;2947;52.276;9.946;2024-01-15T03:52:03;2.10;99.90
5842;DHT22;2947;52.276;9.946;2024-01-15T03:54:29;2.10;99.90
5842;DHT22;2947;52.276;9.946;2024-01-15T03:56:56;2.20;99.90
5842;DHT22;2947;52.276;9.946;2024-01-15T03:59:22;2.10;99.90
5842;DHT22;2947;52.276;9.946;2024-01-15T04:01:48;2.10;99.90
5842;DHT22;2947;52.276;9.946;2024-01-15T04:04:16;2.10;99.90
5842;DHT22;2947;52.276;9.946;2024-01-15T04:06:42;2.10;99.90
5842;DHT22;2947;52.276;9.946;2024-01-15T04:09:08;2.10;99.90
5842;DHT22;2947;52.276;9.946;2024-01-15T04:11:34;2.20;99.90
5842;DHT22;2947;52.276;9.946;2024-01-15T04:14:00;2.20;99.90
5842;DHT22;2947;52.276;9.946;2024-01-15T04:16:25;2.10;99.90
5842;DHT22;2947;52.276;9.946;2024-01-15T04:18:54;2.20;99.90
5842;DHT22;2947;52.276;9.946;2024-01-15T04:21:20;2.20;99.90
5842;DHT22;2947;52.276;9.946;2024-01-15T04:23:45;2.20;99.90
5842;DHT22;2947;52.276;9.946;2024-01-15T04:26:11;2.30;99.90
5842;DHT22;2947;52.276;9.946;2024-01-15T04:28:37;2.20;99.90
5842;DHT22;2947;52.276;9.946;2024-01-15T04:31:02;2.20;99.90
5842;DHT22;2947;52.276;9.946;2024-01-15T04:33:28;1.40;99.90
5842;DHT22;2947;52.276;9.946;2024-01-15T04:35:54;2.30;99.90
5842;DHT22;2947;52.276;9.946;2024-01-15T04:38:20;2.30;99.90
5842;DHT22;2947;52.276;9.946;2024-01-15T04:40:51;2.30;99.90
5842;DHT22;2947;52.276;9.946;2024-01-15T04:43:17;2.30;99.90
5842;DHT22;2947;52.276;9.946;2024-01-15T04:45:43;2.30;99.90
5842;DHT22;2947;52.276;9.946;2024-01-15T04:48:08;2.30;99.90
5842;DHT22;2947;52.276;9.946;2024-01-15T04:50:34;2.20;99.90
5842;DHT22;2947;52.276;9.946;2024-01-15T04:53:00;2.20;99.90
5842;DHT22;2947;52.276;9.946;2024-01-15T04:55:25;2.20;99.90
5842;DHT22;2947;52.276;9.946;2024-01-15T04:57:51;2.40;99.90
5842;DHT22;2947;52.276;9.946;2024-01-15T05:00:17;2.20;99.90
5842;DHT22;2947;52.276;9.946;2024-01-15T05:02:47;2.20;99.90
5842;DHT22;2947;52.276;9.946;2024-01-15T05:05:13;2.20;99.90
5842;DHT22;2947;52.276;9.946;2024-01-15T05:07:39;2.20;99.90
5842;DHT22;2947;52.276;9.946;2024-01-15T05:10:06;2.20;99.90
5842;DHT22;2947;52.276;9.946;2024-01-15T05:12:33;2.20;99.90
5842;DHT22;2947;52.276;9.946;2024-01-15T05:14:58;2.20;99.90
5842;DHT22;2947;52.276;9.946;2024-01-15T05:17:24;2.20;99.90
5842;DHT22;2947;52.276;9.946;2024-01-15T05:19:50;2.20;99.90
5842;DHT22;2947;52.276;9.946;2024-01-15T05:22:16;2.20;99.90
5842;DHT22;2947;52.276;9.946;2024-01-15T05:24:42;3.10;99.90
5842;DHT22;2947;52.276;9.946;2024-01-15T05:27:08;2.10;99.90
5842;DHT22;2947;52.276;9.946;2024-01-15T05:29:34;2.10;99.90
5842;DHT22;2947;52.276;9.946;2024-01-15T05:31:59;2.10;99.90
5842;DHT22;2947;52.276;9.946;2024-01-15T05:34:25;2.10;99.90
5842;DHT22;2947;52.276;9.946;2024-01-15T05:36:51;2.10;99.90
5842;DHT22;2947;52.276;9.946;2024-01-15T05:39:17;2.10;99.90
5842;DHT22;2947;52.276;9.946;2024-01-15T05:41:42;2.00;99.90
5842;DHT22;2947;52.276;9.946;2024-01-15T05:44:08;2.10;99.90
5842;DHT22;2947;52.276;9.946;2024-01-15T05:46:35;2.70;99.90
5842;DHT22;2947;52.276;9.946;2024-01-15T05:49:01;2.10;99.90
5842;DHT22;2947;52.276;9.946;2024-01-15T05:51:26;2.10;99.90
5842;DHT22;2947;52.276;9.946;2024-01-15T05:53:52;2.00;99.90
5842;DHT22;2947;52.276;9.946;2024-01-15T05:56:18;2.00;99.90
5842;DHT22;2947;52.276;9.946;2024-01-15T05:58:45;1.20;99.90
5842;DHT22;2947;52.276;9.946;2024-01-15T06:01:11;2.00;99.90
5842;DHT22;2947;52.276;9.946;2024-01-15T06:03:36;2.00;99.90
5842;DHT22;2947;52.276;9.946;2024-01-15T06:06:02;2.00;99.90
5842;DHT22;2947;52.276;9.946;2024-01-15T06:08:28;2.00;99.90
5842;DHT22;2947;52.276;9.946;2024-01-15T06:10:56;2.10;99.90
5842;DHT22;2947;52.276;9.946;2024-01-15T06:13:22;2.00;99.90
5842;DHT22;2947;52.276;9.946;2024-01-15T06:15:47;2.00;99.90
5842;DHT22;2947;52.276;9.946;2024-01-15T06:18:13;2.00;99.90
5842;DHT22;2947;52.276;9.946;2024-01-15T06:20:39;1.90;99.90
5842;DHT22;2947;52.276;9.946;2024-01-15T06:23:05;2.00;99.90
5842;DHT22;2947;52.276;9.946;2024-01-15T06:25:30;2.00;99.90
5842;DHT22;2947;52.276;9.946;2024-01-15T06:27:56;2.00;99.90
5842;DHT22;2947;52.276;9.946;2024-01-15T06:30:22;2.10;99.90
5842;DHT22;2947;52.276;9.946;2024-01-15T06:32:48;2.10;99.90
5842;DHT22;2947;52.276;9.946;2024-01-15T06:35:14;2.00;99.90
5842;DHT22;2947;52.276;9.946;2024-01-15T06:37:40;2.00;99.90
5842;DHT22;2947;52.276;9.946;2024-01-15T06:40:07;2.00;99.90
5842;DHT22;2947;52.276;9.946;2024-01-15T06:42:33;2.00;99.90
5842;DHT22;2947;52.276;9.946;2024-01-15T06:44:59;1.90;99.90
5842;DHT22;2947;52.276;9.946;2024-01-15T06:47:25;1.90;99.90
5842;DHT22;2947;52.276;9.946;2024-01-15T06:49:50;2.00;99.90
5842;DHT22;2947;52.276;9.946;2024-01-15T06:52:17;1.90;99.90
5842;DHT22;2947;52.276;9.946;2024-01-15T06:54:43;1.90;99.90
5842;DHT22;2947;52.276;9.946;2024-01-15T06:57:08;1.90;99.90
5842;DHT22;2947;52.276;9.946;2024-01-15T06:59:34;1.90;99.90
5842;DHT22;2947;52.276;9.946;2024-01-15T07:02:03;1.90;99.90
5842;DHT22;2947;52.276;9.946;2024-01-15T07:04:29;1.90;99.90
5842;DHT22;2947;52.276;9.946;2024-01-15T07:06:55;1.90;99.90
5842;DHT22;2947;52.276;9.946;2024-01-15T07:09:21;1.90;99.90
5842;DHT22;2947;52.276;9.946;2024-01-15T07:11:48;1.90;99.90
5842;DHT22;2947;52.276;9.946;2024-01-15T07:14:14;2.00;99.90
5842;DHT22;2947;52.276;9.946;2024-01-15T07:16:39;2.00;99.90
5842;DHT22;2947;52.276;9.946;2024-01-15T07:19:05;2.00;99.90
5842;DHT22;2947;52.276;9.946;2024-01-15T07:21:31;1.90;99.90
5842;DHT22;2947;52.276;9.946;2024-01-15T07:23:57;2.00;99.90
5842;DHT22;2947;52.276;9.946;2024-01-15T07:26:23;2.00;99.90
5842;DHT22;2947;52.276;9.946;2024-01-15T07:28:49;2.00;99.90
5842;DHT22;2947;52.276;9.946;2024-01-15T07:31:18;2.00;99.90
5842;DHT22;2947;52.276;9.946;2024-01-15T07:33:44;2.00;99.90
5842;DHT22;2947;52.276;9.946;2024-01-15T07:36:10;2.00;99.90
5842;DHT22;2947;52.276;9.946;2024-01-15T07:38:36;1.90;99.90
5842;DHT22;2947;52.276;9.946;2024-01-15T07:41:02;2.00;99.90
5842;DHT22;2947;52.276;9.946;2024-01-15T07:43:29;1.90;99.90
5842;DHT22;2947;52.276;9.946;2024-01-15T07:45:55;1.90;99.90
5842;DHT22;2947;52.276;9.946;2024-01-15T07:48:20;1.90;99.90
5842;DHT22;2947;52.276;9.946;2024-01-15T07:50:47;1.90;99.90
5842;DHT22;2947;52.276;9.946;2024-01-15T07:53:12;1.90;99.90
5842;DHT22;2947;52.276;9.946;2024-01-15T07:55:38;1.90;99.90
5842;DHT22;2947;52.276;9.946;2024-01-15T07:58:04;1.90;99.90
5842;DHT22;2947;52.276;9.946;2024-01-15T08:00:30;1.90;99.90
5842;DHT22;2947;52.276;9.946;2024-01-15T08:02:55;1.90;99.90
5842;DHT22;2947;52.276;9.946;2024-01-15T08:05:21;1.80;99.90
5842;DHT22;2947;52.276;9.946;2024-01-15T08:07:47;1.80;99.90
5842;DHT22;2947;52.276;9.946;2024-01-15T08:10:13;1.80;99.90
5842;DHT22;2947;52.276;9.946;2024-01-15T08:12:39;1.80;99.90
5842;DHT22;2947;52.276;9.946;2024-01-15T08:15:05;1.80;99.90
5842;DHT22;2947;52.276;9.946;2024-01-15T08:17:31;1.70;99.90
5842;DHT22;2947;52.276;9.946;2024-01-15T08:19:57;1.80;99.90
5842;DHT22;2947;52.276;9.946;2024-01-15T08:22:24;1.80;99.90
5842;DHT22;2947;52.276;9.946;2024-01-15T08:24:50;1.80;99.90
5842;DHT22;2947;52.276;9.946;2024-01-15T08:27:16;1.80;99.90
5842;DHT22;2947;52.276;9.946;2024-01-15T08:29:42;1.80;99.90
5842;DHT22;2947;52.276;9.946;2024-01-15T08:32:08;1.70;99.90
5842;DHT22;2947;52.276;9.946;2024-01-15T08:34:39;1.70;99.90
5842;DHT22;2947;52.276;9.946;2024-01-15T08:37:05;1.70;99.90
5842;DHT22;2947;52.276;9.946;2024-01-15T08:39:31;1.70;99.90
5842;DHT22;2947;52.276;9.946;2024-01-15T08:41:56;1.70;99.90
5842;DHT22;2947;52.276;9.946;2024-01-15T08:44:23;1.70;99.90
5842;DHT22;2947;52.276;9.946;2024-01-15T08:46:49;1.70;99.90
5842;DHT22;2947;52.276;9.946;2024-01-15T08:49:15;1.70;99.90
5842;DHT22;2947;52.276;9.946;2024-01-15T08:51:40;1.70;99.90
5842;DHT22;2947;52.276;9.946;2024-01-15T08:54:06;1.80;99.90
5842;DHT22;2947;52.276;9.946;2024-01-15T08:56:34;3.00;99.90
5842;DHT22;2947;52.276;9.946;2024-01-15T08:59:00;1.80;99.90
5842;DHT22;2947;52.276;9.946;2024-01-15T09:01:26;1.80;99.90
5842;DHT22;2947;52.276;9.946;2024-01-15T09:03:51;1.90;99.90
5842;DHT22;2947;52.276;9.946;2024-01-15T09:06:17;1.90;99.90
5842;DHT22;2947;52.276;9.946;2024-01-15T09:08:46;1.90;99.90
5842;DHT22;2947;52.276;9.946;2024-01-15T09:11:11;1.90;99.90
5842;DHT22;2947;52.276;9.946;2024-01-15T09:13:37;2.00;99.90
5842;DHT22;2947;52.276;9.946;2024-01-15T09:16:04;2.00;99.90
5842;DHT22;2947;52.276;9.946;2024-01-15T09:18:29;2.00;99.90
5842;DHT22;2947;52.276;9.946;2024-01-15T09:20:55;2.00;99.90
5842;DHT22;2947;52.276;9.946;2024-01-15T09:23:24;2.10;99.90
5842;DHT22;2947;52.276;9.946;2024-01-15T09:25:50;2.00;99.90
5842;DHT22;2947;52.276;9.946;2024-01-15T09:28:18;2.10;99.90
5842;DHT22;2947;52.276;9.946;2024-01-15T09:30:43;2.10;99.90
5842;DHT22;2947;52.276;9.946;2024-01-15T09:33:10;2.10;99.90
5842;DHT22;2947;52.276;9.946;2024-01-15T09:35:36;2.10;99.90
5842;DHT22;2947;52.276;9.946;2024-01-15T09:38:02;2.20;99.90
5842;DHT22;2947;52.276;9.946;2024-01-15T09:40:31;2.20;99.90
5842;DHT22;2947;52.276;9.946;2024-01-15T09:43:00;2.20;99.90
5842;DHT22;2947;52.276;9.946;2024-01-15T09:45:27;2.80;99.90
5842;DHT22;2947;52.276;9.946;2024-01-15T09:47:53;2.30;99.90
5842;DHT22;2947;52.276;9.946;2024-01-15T09:50:19;2.30;99.90
5842;DHT22;2947;52.276;9.946;2024-01-15T09:52:45;2.20;99.90
5842;DHT22;2947;52.276;9.946;2024-01-15T09:55:12;2.40;99.90
5842;DHT22;2947;52.276;9.946;2024-01-15T09:57:39;2.40;99.90
5842;DHT22;2947;52.276;9.946;2024-01-15T10:00:06;2.50;99.90
5842;DHT22;2947;52.276;9.946;2024-01-15T10:02:33;2.50;99.90
5842;DHT22;2947;52.276;9.946;2024-01-15T10:05:00;2.50;99.90
5842;DHT22;2947;52.276;9.946;2024-01-15T10:07:26;2.50;99.90
5842;DHT22;2947;52.276;9.946;2024-01-15T10:09:51;2.50;99.90
5842;DHT22;2947;52.276;9.946;2024-01-15T10:12:21;2.50;99.90
5842;DHT22;2947;52.276;9.946;2024-01-15T10:14:47;2.40;99.90
5842;DHT22;2947;52.276;9.946;2024-01-15T10:17:14;2.40;99.90
5842;DHT22;2947;52.276;9.946;2024-01-15T10:19:40;2.40;99.90
5842;DHT22;2947;52.276;9.946;2024-01-15T10:22:08;2.40;99.90
5842;DHT22;2947;52.276;9.946;2024-01-15T10:24:38;2.40;99.90
5842;DHT22;2947;52.276;9.946;2024-01-15T10:27:10;2.30;99.90
5842;DHT22;2947;52.276;9.946;2024-01-15T10:29:37;2.20;99.90
5842;DHT22;2947;52.276;9.946;2024-01-15T10:32:06;2.10;99.90
5842;DHT22;2947;52.276;9.946;2024-01-15T10:34:32;1.20;99.90
5842;DHT22;2947;52.276;9.946;2024-01-15T10:36:58;2.10;99.90
5842;DHT22;2947;52.276;9.946;2024-01-15T10:39:24;2.10;99.90
5842;DHT22;2947;52.276;9.946;2024-01-15T10:41:51;2.20;99.90
5842;DHT22;2947;52.276;9.946;2024-01-15T10:44:17;2.20;99.90
5842;DHT22;2947;52.276;9.946;2024-01-15T10:46:45;2.20;99.90
5842;DHT22;2947;52.276;9.946;2024-01-15T10:49:11;2.30;99.90
5842;DHT22;2947;52.276;9.946;2024-01-15T10:51:40;2.30;99.90
5842;DHT22;2947;52.276;9.946;2024-01-15T10:54:09;2.40;99.90
5842;DHT22;2947;52.276;9.946;2024-01-15T10:56:37;2.40;99.90
5842;DHT22;2947;52.276;9.946;2024-01-15T10:59:04;2.50;99.90
5842;DHT22;2947;52.276;9.946;2024-01-15T11:01:30;2.60;99.90
5842;DHT22;2947;52.276;9.946;2024-01-15T11:03:56;2.70;99.90
5842;DHT22;2947;52.276;9.946;2024-01-15T11:06:24;2.60;99.90
5842;DHT22;2947;52.276;9.946;2024-01-15T11:08:51;2.70;99.90
5842;DHT22;2947;52.276;9.946;2024-01-15T11:11:18;2.70;99.90
5842;DHT22;2947;52.276;9.946;2024-01-15T11:13:47;2.70;99.90
5842;DHT22;2947;52.276;9.946;2024-01-15T11:16:15;2.70;99.90
5842;DHT22;2947;52.276;9.946;2024-01-15T11:21:24;2.70;99.90
5842;DHT22;2947;52.276;9.946;2024-01-15T11:23:56;2.80;99.90
5842;DHT22;2947;52.276;9.946;2024-01-15T11:29:10;2.80;99.90
5842;DHT22;2947;52.276;9.946;2024-01-15T11:32:14;2.80;99.90
5842;DHT22;2947;52.276;9.946;2024-01-15T11:37:16;3.00;72.10
5842;DHT22;2947;52.276;9.946;2024-01-15T11:39:43;2.80;46.30
5842;DHT22;2947;52.276;9.946;2024-01-15T11:42:10;3.00;32.60
5842;DHT22;2947;52.276;9.946;2024-01-15T11:44:40;3.00;48.90
5842;DHT22;2947;52.276;9.946;2024-01-15T11:47:07;4.00;33.90
5842;DHT22;2947;52.276;9.946;2024-01-15T11:50:03;3.10;63.10
5842;DHT22;2947;52.276;9.946;2024-01-15T11:52:37;3.10;5.10
5842;DHT22;2947;52.276;9.946;2024-01-15T11:55:27;3.20;11.50
5842;DHT22;2947;52.276;9.946;2024-01-15T11:57:57;3.10;1.00
5842;DHT22;2947;52.276;9.946;2024-01-15T12:00:26;3.10;1.00
5842;DHT22;2947;52.276;9.946;2024-01-15T12:02:51;3.10;23.00
5842;DHT22;2947;52.276;9.946;2024-01-15T12:05:19;3.00;20.90
5842;DHT22;2947;52.276;9.946;2024-01-15T12:07:48;3.00;14.70
5842;DHT22;2947;52.276;9.946;2024-01-15T12:10:19;2.90;13.30
5842;DHT22;2947;52.276;9.946;2024-01-15T12:15:29;3.00;45.00
5842;DHT22;2947;52.276;9.946;2024-01-15T12:17:57;2.90;34.80
5842;DHT22;2947;52.276;9.946;2024-01-15T12:20:26;2.90;27.40
5842;DHT22;2947;52.276;9.946;2024-01-15T12:22:53;2.90;20.90
5842;DHT22;2947;52.276;9.946;2024-01-15T12:25:20;2.90;21.10
5842;DHT22;2947;52.276;9.946;2024-01-15T12:27:46;2.90;31.40
5842;DHT22;2947;52.276;9.946;2024-01-15T12:30:13;2.90;11.20
5842;DHT22;2947;52.276;9.946;2024-01-15T12:32:41;2.90;14.50
5842;DHT22;2947;52.276;9.946;2024-01-15T12:35:08;2.90;8.50
5842;DHT22;2947;52.276;9.946;2024-01-15T12:37:39;2.80;6.70
5842;DHT22;2947;52.276;9.946;2024-01-15T12:40:07;2.90;1.00
5842;DHT22;2947;52.276;9.946;2024-01-15T12:42:34;2.80;1.00
5842;DHT22;2947;52.276;9.946;2024-01-15T12:45:09;2.80;8.80
5842;DHT22;2947;52.276;9.946;2024-01-15T12:47:36;2.80;1.00
5842;DHT22;2947;52.276;9.946;2024-01-15T12:50:06;2.80;1.00
5842;DHT22;2947;52.276;9.946;2024-01-15T12:52:32;2.80;1.00
5842;DHT22;2947;52.276;9.946;2024-01-15T12:54:58;2.80;1.00
5842;DHT22;2947;52.276;9.946;2024-01-15T12:57:24;2.80;1.00
5842;DHT22;2947;52.276;9.946;2024-01-15T12:59:49;2.80;1.00
5842;DHT22;2947;52.276;9.946;2024-01-15T13:02:16;2.80;1.00
5842;DHT22;2947;52.276;9.946;2024-01-15T13:04:42;2.80;1.00
5842;DHT22;2947;52.276;9.946;2024-01-15T13:07:09;2.80;1.00
5842;DHT22;2947;52.276;9.946;2024-01-15T13:09:35;2.70;1.00
5842;DHT22;2947;52.276;9.946;2024-01-15T13:12:02;2.80;1.00
5842;DHT22;2947;52.276;9.946;2024-01-15T13:14:31;2.80;1.00
5842;DHT22;2947;52.276;9.946;2024-01-15T13:17:00;2.80;1.00
5842;DHT22;2947;52.276;9.946;2024-01-15T13:19:26;2.80;19.10
5842;DHT22;2947;52.276;9.946;2024-01-15T13:21:53;2.70;89.70
5842;DHT22;2947;52.276;9.946;2024-01-15T13:24:20;2.70;99.90
5842;DHT22;2947;52.276;9.946;2024-01-15T13:26:47;2.80;99.90
5842;DHT22;2947;52.276;9.946;2024-01-15T13:29:13;2.80;99.90
5842;DHT22;2947;52.276;9.946;2024-01-15T13:31:39;2.80;91.90
5842;DHT22;2947;52.276;9.946;2024-01-15T13:34:04;2.90;80.40
5842;DHT22;2947;52.276;9.946;2024-01-15T13:36:30;2.80;50.80
5842;DHT22;2947;52.276;9.946;2024-01-15T13:38:56;2.80;15.70
5842;DHT22;2947;52.276;9.946;2024-01-15T13:41:22;2.80;56.40
5842;DHT22;2947;52.276;9.946;2024-01-15T13:43:53;2.70;97.50
5842;DHT22;2947;52.276;9.946;2024-01-15T13:46:24;3.90;99.90
5842;DHT22;2947;52.276;9.946;2024-01-15T13:48:54;2.60;99.90
5842;DHT22;2947;52.276;9.946;2024-01-15T13:51:22;2.70;99.90
5842;DHT22;2947;52.276;9.946;2024-01-15T13:53:48;2.70;99.90
5842;DHT22;2947;52.276;9.946;2024-01-15T13:56:13;2.70;99.90
5842;DHT22;2947;52.276;9.946;2024-01-15T13:58:40;2.60;99.90
5842;DHT22;2947;52.276;9.946;2024-01-15T14:01:06;2.60;99.90
5842;DHT22;2947;52.276;9.946;2024-01-15T14:03:32;2.50;99.90
5842;DHT22;2947;52.276;9.946;2024-01-15T14:05:59;2.50;99.90
5842;DHT22;2947;52.276;9.946;2024-01-15T14:08:25;2.50;99.90
5842;DHT22;2947;52.276;9.946;2024-01-15T14:10:51;3.20;99.90
5842;DHT22;2947;52.276;9.946;2024-01-15T14:13:17;2.60;99.90
5842;DHT22;2947;52.276;9.946;2024-01-15T14:15:43;2.60;99.90
5842;DHT22;2947;52.276;9.946;2024-01-15T14:18:08;2.60;99.90
5842;DHT22;2947;52.276;9.946;2024-01-15T14:20:34;2.50;99.90
5842;DHT22;2947;52.276;9.946;2024-01-15T14:23:00;2.50;99.90
5842;DHT22;2947;52.276;9.946;2024-01-15T14:25:26;2.50;99.90
5842;DHT22;2947;52.276;9.946;2024-01-15T14:27:51;2.40;99.90
5842;DHT22;2947;52.276;9.946;2024-01-15T14:30:18;2.30;99.90
5842;DHT22;2947;52.276;9.946;2024-01-15T14:32:47;2.20;99.90
5842;DHT22;2947;52.276;9.946;2024-01-15T14:35:13;2.10;99.90
5842;DHT22;2947;52.276;9.946;2024-01-15T14:37:39;2.20;99.90
5842;DHT22;2947;52.276;9.946;2024-01-15T14:40:08;2.20;99.90
5842;DHT22;2947;52.276;9.946;2024-01-15T14:42:36;2.20;99.90
5842;DHT22;2947;52.276;9.946;2024-01-15T14:45:04;2.20;99.90
5842;DHT22;2947;52.276;9.946;2024-01-15T14:47:34;2.20;99.90
5842;DHT22;2947;52.276;9.946;2024-01-15T14:50:01;2.20;99.90
5842;DHT22;2947;52.276;9.946;2024-01-15T14:52:26;2.30;99.90
5842;DHT22;2947;52.276;9.946;2024-01-15T14:54:52;2.20;99.90
5842;DHT22;2947;52.276;9.946;2024-01-15T14:57:19;2.30;99.90
5842;DHT22;2947;52.276;9.946;2024-01-15T14:59:45;2.30;99.90
5842;DHT22;2947;52.276;9.946;2024-01-15T15:02:11;2.30;99.90
5842;DHT22;2947;52.276;9.946;2024-01-15T15:04:37;2.20;99.90
5842;DHT22;2947;52.276;9.946;2024-01-15T15:07:04;2.20;99.90
5842;DHT22;2947;52.276;9.946;2024-01-15T15:09:31;2.20;99.90
5842;DHT22;2947;52.276;9.946;2024-01-15T15:11:57;3.60;99.90
5842;DHT22;2947;52.276;9.946;2024-01-15T15:14:23;2.20;99.90
5842;DHT22;2947;52.276;9.946;2024-01-15T15:16:48;2.20;99.90
5842;DHT22;2947;52.276;9.946;2024-01-15T15:19:14;2.20;99.90
5842;DHT22;2947;52.276;9.946;2024-01-15T15:21:40;2.00;99.90
5842;DHT22;2947;52.276;9.946;2024-01-15T15:24:06;2.20;99.90
5842;DHT22;2947;52.276;9.946;2024-01-15T15:26:31;2.10;99.90
5842;DHT22;2947;52.276;9.946;2024-01-15T15:28:57;2.10;99.90
5842;DHT22;2947;52.276;9.946;2024-01-15T15:31:23;2.10;99.90
5842;DHT22;2947;52.276;9.946;2024-01-15T15:33:49;2.00;99.90
5842;DHT22;2947;52.276;9.946;2024-01-15T15:36:14;2.10;99.90
5842;DHT22;2947;52.276;9.946;2024-01-15T15:38:41;2.00;99.90
5842;DHT22;2947;52.276;9.946;2024-01-15T15:41:07;2.00;99.90
5842;DHT22;2947;52.276;9.946;2024-01-15T15:43:33;2.00;99.90
5842;DHT22;2947;52.276;9.946;2024-01-15T15:45:59;2.10;99.90
5842;DHT22;2947;52.276;9.946;2024-01-15T15:48:26;2.00;99.90
5842;DHT22;2947;52.276;9.946;2024-01-15T15:50:52;2.00;99.90
5842;DHT22;2947;52.276;9.946;2024-01-15T15:53:21;2.10;99.90
5842;DHT22;2947;52.276;9.946;2024-01-15T15:55:49;2.00;99.90
5842;DHT22;2947;52.276;9.946;2024-01-15T15:58:15;2.00;99.90
5842;DHT22;2947;52.276;9.946;2024-01-15T16:00:41;2.00;99.90
5842;DHT22;2947;52.276;9.946;2024-01-15T16:03:07;2.10;99.90
5842;DHT22;2947;52.276;9.946;2024-01-15T16:05:33;2.00;99.90
5842;DHT22;2947;52.276;9.946;2024-01-15T16:07:58;2.00;99.90
5842;DHT22;2947;52.276;9.946;2024-01-15T16:10:24;2.20;99.90
5842;DHT22;2947;52.276;9.946;2024-01-15T16:12:50;2.80;99.90
5842;DHT22;2947;52.276;9.946;2024-01-15T16:15:22;1.90;99.90
5842;DHT22;2947;52.276;9.946;2024-01-15T16:17:50;1.90;99.90
5842;DHT22;2947;52.276;9.946;2024-01-15T16:20:17;1.80;99.90
5842;DHT22;2947;52.276;9.946;2024-01-15T16:22:44;1.80;99.90
5842;DHT22;2947;52.276;9.946;2024-01-15T16:25:10;1.80;99.90